sensor_id;sensor_type;location;lat;lon;timestamp;pressure;altitude;pressure_sealevel;temperature;humidity
5138;BME280;53959;53.626;11.410;2023-04-20T00:00:37;101739.94;;;5.30;77.18
5138;BME280;53959;53.626;11.410;2023-04-20T00:03:02;101738.22;;;5.37;77.63
5138;BME280;53959;53.626;11.410;2023-04-20T00:05:28;101746.03;;;5.28;77.52
5138;BME280;53959;53.626;11.410;2023-04-20T00:07:56;101746.81;;;5.22;78.12
5138;BME280;53959;53.626;11.410;2023-04-20T00:10:23;101719.72;;;5.31;77.51
5138;BME280;53959;53.626;11.410;2023-04-20T00:12:48;101718.78;;;5.26;77.72
5138;BME280;53959;53.626;11.410;2023-04-20T00:15:14;101711.69;;;5.20;77.91
5138;BME280;53959;53.626;11.410;2023-04-20T00:17:39;101718.81;;;5.27;77.70
5138;BME280;53959;53.626;11.410;2023-04-20T00:20:05;101717.09;;;5.34;78.19
5138;BME280;53959;53.626;11.410;2023-04-20T00:22:32;101719.72;;;5.31;77.49
5138;BME280;53959;53.626;11.410;2023-04-20T00:24:58;101729.34;;;5.29;77.66
5138;BME280;53959;53.626;11.410;2023-04-20T00:27:23;101724.09;;;5.29;77.58
5138;BME280;53959;53.626;11.410;2023-04-20T00:29:49;101725.09;;;5.40;77.10
5138;BME280;53959;53.626;11.410;2023-04-20T00:32:14;101720.72;;;5.41;77.18
5138;BME280;53959;53.626;11.410;2023-04-20T00:34:40;101720.75;;;5.45;77.24
5138;BME280;53959;53.626;11.410;2023-04-20T00:37:05;101711.88;;;5.37;77.80
5138;BME280;53959;53.626;11.410;2023-04-20T00:39:31;101708.38;;;5.35;77.10
5138;BME280;53959;53.626;11.410;2023-04-20T00:42:07;101719.78;;;5.37;77.09
5138;BME280;53959;53.626;11.410;2023-04-20T00:44:32;101711.06;;;5.40;77.46
5138;BME280;53959;53.626;11.410;2023-04-20T00:46:59;101714.56;;;5.40;77.26
5138;BME280;53959;53.626;11.410;2023-04-20T00:49:29;101723.38;;;5.42;77.20
5138;BME280;53959;53.626;11.410;2023-04-20T00:51:56;101718.03;;;5.36;77.82
5138;BME280;53959;53.626;11.410;2023-04-20T00:54:23;101718.13;;;5.42;77.74
5138;BME280;53959;53.626;11.410;2023-04-20T00:56:49;101716.38;;;5.43;77.89
5138;BME280;53959;53.626;11.410;2023-04-20T00:59:15;101707.72;;;5.54;77.86
5138;BME280;53959;53.626;11.410;2023-04-20T01:01:40;101704.94;;;5.45;78.01
5138;BME280;53959;53.626;11.410;2023-04-20T01:04:07;101688.31;;;5.46;77.86
5138;BME280;53959;53.626;11.410;2023-04-20T01:06:32;101689.13;;;5.42;77.18
5138;BME280;53959;53.626;11.410;2023-04-20T01:08:58;101695.28;;;5.43;77.48
5138;BME280;53959;53.626;11.410;2023-04-20T01:11:23;101699.81;;;5.53;77.23
5138;BME280;53959;53.626;11.410;2023-04-20T01:13:49;101693.47;;;5.40;77.18
5138;BME280;53959;53.626;11.410;2023-04-20T01:16:14;101691.81;;;5.48;78.05
5138;BME280;53959;53.626;11.410;2023-04-20T01:18:45;101682.94;;;5.40;77.99
5138;BME280;53959;53.626;11.410;2023-04-20T01:21:13;101673.25;;;5.36;77.85
5138;BME280;53959;53.626;11.410;2023-04-20T01:23:39;101668.88;;;5.38;78.62
5138;BME280;53959;53.626;11.410;2023-04-20T01:29:34;101645.31;;;5.50;77.18
5138;BME280;53959;53.626;11.410;2023-04-20T01:32:00;101646.97;;;5.45;77.08
5138;BME280;53959;53.626;11.410;2023-04-20T01:34:25;101652.28;;;5.48;76.60
5138;BME280;53959;53.626;11.410;2023-04-20T01:36:52;101660.34;;;5.60;76.49
5138;BME280;53959;53.626;11.410;2023-04-20T01:39:17;101657.63;;;5.54;75.63
5138;BME280;53959;53.626;11.410;2023-04-20T01:41:43;101649.81;;;5.64;75.38
5138;BME280;53959;53.626;11.410;2023-04-20T01:44:08;101643.78;;;5.75;75.67
5138;BME280;53959;53.626;11.410;2023-04-20T01:46:38;101648.16;;;5.72;75.61
5138;BME280;53959;53.626;11.410;2023-04-20T01:49:05;101646.25;;;5.57;75.70
5138;BME280;53959;53.626;11.410;2023-04-20T01:51:32;101641.06;;;5.65;75.88
5138;BME280;53959;53.626;11.410;2023-04-20T01:53:59;101634.06;;;5.70;75.96
5138;BME280;53959;53.626;11.410;2023-04-20T01:56:26;101628.88;;;5.76;75.85
5138;BME280;53959;53.626;11.410;2023-04-20T01:58:52;101634.06;;;5.71;75.68
5138;BME280;53959;53.626;11.410;2023-04-20T02:01:18;101634.88;;;5.61;76.01
5138;BME280;53959;53.626;11.410;2023-04-20T02:03:43;101632.38;;;5.76;75.75
5138;BME280;53959;53.626;11.410;2023-04-20T02:06:09;101630.59;;;5.72;75.42
5138;BME280;53959;53.626;11.410;2023-04-20T02:08:34;101624.38;;;5.67;75.84
5138;BME280;53959;53.626;11.410;2023-04-20T02:11:00;101629.72;;;5.73;75.32
5138;BME280;53959;53.626;11.410;2023-04-20T02:13:25;101624.44;;;5.72;75.05
5138;BME280;53959;53.626;11.410;2023-04-20T02:15:51;101632.41;;;5.81;75.35
5138;BME280;53959;53.626;11.410;2023-04-20T02:18:16;101626.25;;;5.77;74.70
5138;BME280;53959;53.626;11.410;2023-04-20T02:20:42;101630.69;;;5.83;74.99
5138;BME280;53959;53.626;11.410;2023-04-20T02:23:08;101631.44;;;5.71;74.77
5138;BME280;53959;53.626;11.410;2023-04-20T02:25:34;101639.38;;;5.73;75.20
5138;BME280;53959;53.626;11.410;2023-04-20T02:27:59;101642.91;;;5.75;75.22
5138;BME280;53959;53.626;11.410;2023-04-20T02:30:25;101634.03;;;5.67;75.88
5138;BME280;53959;53.626;11.410;2023-04-20T02:32:50;101630.53;;;5.68;75.79
5138;BME280;53959;53.626;11.410;2023-04-20T02:35:16;101634.88;;;5.64;75.70
5138;BME280;53959;53.626;11.410;2023-04-20T02:37:42;101640.22;;;5.69;76.55
5138;BME280;53959;53.626;11.410;2023-04-20T02:40:11;101628.81;;;5.70;76.56
5138;BME280;53959;53.626;11.410;2023-04-20T02:42:36;101627.00;;;5.66;76.70
5138;BME280;53959;53.626;11.410;2023-04-20T02:45:06;101622.72;;;5.77;76.85
5138;BME280;53959;53.626;11.410;2023-04-20T02:47:31;101614.75;;;5.71;77.24
5138;BME280;53959;53.626;11.410;2023-04-20T02:49:57;101616.53;;;5.73;76.95
5138;BME280;53959;53.626;11.410;2023-04-20T02:52:23;101625.25;;;5.68;77.07
5138;BME280;53959;53.626;11.410;2023-04-20T02:54:48;101623.47;;;5.64;77.38
5138;BME280;53959;53.626;11.410;2023-04-20T02:57:13;101621.78;;;5.69;77.65
5138;BME280;53959;53.626;11.410;2023-04-20T02:59:40;101617.31;;;5.62;78.18
5138;BME280;53959;53.626;11.410;2023-04-20T03:02:23;101619.06;;;5.63;78.89
5138;BME280;53959;53.626;11.410;2023-04-20T03:04:49;101616.44;;;5.63;78.51
5138;BME280;53959;53.626;11.410;2023-04-20T03:07:18;101618.94;;;5.52;78.65
5138;BME280;53959;53.626;11.410;2023-04-20T03:09:44;101623.47;;;5.64;79.02
5138;BME280;53959;53.626;11.410;2023-04-20T03:12:13;101612.81;;;5.51;79.06
5138;BME280;53959;53.626;11.410;2023-04-20T03:15:14;101601.50;;;5.63;79.13
5138;BME280;53959;53.626;11.410;2023-04-20T03:17:58;101608.53;;;5.63;79.29
5138;BME280;53959;53.626;11.410;2023-04-20T03:20:23;101610.25;;;5.57;79.22
5138;BME280;53959;53.626;11.410;2023-04-20T03:22:49;101614.63;;;5.57;79.41
5138;BME280;53959;53.626;11.410;2023-04-20T03:25:17;101615.50;;;5.59;79.49
5138;BME280;53959;53.626;11.410;2023-04-20T03:27:51;101619.88;;;5.55;79.51
5138;BME280;53959;53.626;11.410;2023-04-20T03:30:17;101627.72;;;5.49;79.73
5138;BME280;53959;53.626;11.410;2023-04-20T03:32:46;101642.72;;;5.55;79.87
5138;BME280;53959;53.626;11.410;2023-04-20T03:35:11;101635.72;;;5.57;79.59
5138;BME280;53959;53.626;11.410;2023-04-20T03:37:38;101638.31;;;5.54;79.99
5138;BME280;53959;53.626;11.410;2023-04-20T03:40:05;101641.91;;;5.60;79.62
5138;BME280;53959;53.626;11.410;2023-04-20T03:42:31;101637.50;;;5.63;80.01
5138;BME280;53959;53.626;11.410;2023-04-20T03:44:57;101648.06;;;5.64;79.94
5138;BME280;53959;53.626;11.410;2023-04-20T03:47:22;101637.41;;;5.50;80.09
5138;BME280;53959;53.626;11.410;2023-04-20T03:49:48;101642.72;;;5.53;80.43
5138;BME280;53959;53.626;11.410;2023-04-20T03:52:13;101631.25;;;5.50;80.30
5138;BME280;53959;53.626;11.410;2023-04-20T03:54:39;101641.84;;;5.54;80.27
5138;BME280;53959;53.626;11.410;2023-04-20T03:57:04;101640.91;;;5.49;80.56
5138;BME280;53959;53.626;11.410;2023-04-20T03:59:30;101628.69;;;5.57;80.50
5138;BME280;53959;53.626;11.410;2023-04-20T04:01:57;101641.78;;;5.51;80.63
5138;BME280;53959;53.626;11.410;2023-04-20T04:04:22;101640.00;;;5.49;80.54
5138;BME280;53959;53.626;11.410;2023-04-20T04:06:48;101638.28;;;5.52;80.95
5138;BME280;53959;53.626;11.410;2023-04-20T04:09:14;101640.03;;;5.52;80.88
5138;BME280;53959;53.626;11.410;2023-04-20T04:11:39;101630.41;;;5.54;81.13
5138;BME280;53959;53.626;11.410;2023-04-20T04:14:05;101635.63;;;5.52;81.26
5138;BME280;53959;53.626;11.410;2023-04-20T04:16:32;101628.66;;;5.53;80.65
5138;BME280;53959;53.626;11.410;2023-04-20T04:18:57;101639.19;;;5.54;80.50
5138;BME280;53959;53.626;11.410;2023-04-20T04:21:23;101639.13;;;5.47;81.04
5138;BME280;53959;53.626;11.410;2023-04-20T04:23:54;101627.81;;;5.58;80.68
5138;BME280;53959;53.626;11.410;2023-04-20T04:26:28;101625.19;;;5.58;80.93
5138;BME280;53959;53.626;11.410;2023-04-20T04:28:53;101628.66;;;5.56;81.14
5138;BME280;53959;53.626;11.410;2023-04-20T04:31:20;101633.91;;;5.54;80.75
5138;BME280;53959;53.626;11.410;2023-04-20T04:33:46;101631.28;;;5.54;81.24
5138;BME280;53959;53.626;11.410;2023-04-20T04:36:21;101634.84;;;5.58;81.05
5138;BME280;53959;53.626;11.410;2023-04-20T04:38:48;101631.25;;;5.50;81.80
5138;BME280;53959;53.626;11.410;2023-04-20T04:41:14;101629.53;;;5.53;81.52
5138;BME280;53959;53.626;11.410;2023-04-20T04:43:41;101633.00;;;5.52;81.55
5138;BME280;53959;53.626;11.410;2023-04-20T04:46:19;101630.38;;;5.52;81.86
5138;BME280;53959;53.626;11.410;2023-04-20T04:48:45;101627.75;;;5.52;82.25
5138;BME280;53959;53.626;11.410;2023-04-20T04:51:11;101618.19;;;5.60;82.20
5138;BME280;53959;53.626;11.410;2023-04-20T04:53:36;101623.47;;;5.60;82.56
5138;BME280;53959;53.626;11.410;2023-04-20T04:56:03;101625.19;;;5.57;82.49
5138;BME280;53959;53.626;11.410;2023-04-20T04:58:28;101627.69;;;5.46;82.79
5138;BME280;53959;53.626;11.410;2023-04-20T05:00:53;101629.53;;;5.53;82.33
5138;BME280;53959;53.626;11.410;2023-04-20T05:03:19;101630.47;;;5.62;82.33
5138;BME280;53959;53.626;11.410;2023-04-20T05:05:44;101633.16;;;5.65;82.15
5138;BME280;53959;53.626;11.410;2023-04-20T05:08:10;101639.28;;;5.64;82.30
5138;BME280;53959;53.626;11.410;2023-04-20T05:10:36;101637.50;;;5.63;82.56
5138;BME280;53959;53.626;11.410;2023-04-20T05:13:01;101637.47;;;5.58;82.73
5138;BME280;53959;53.626;11.410;2023-04-20T05:15:27;101632.25;;;5.63;82.81
5138;BME280;53959;53.626;11.410;2023-04-20T05:17:52;101632.22;;;5.59;82.72
5138;BME280;53959;53.626;11.410;2023-04-20T05:20:18;101636.59;;;5.59;82.78
5138;BME280;53959;53.626;11.410;2023-04-20T05:22:43;101639.28;;;5.64;83.05
5138;BME280;53959;53.626;11.410;2023-04-20T05:25:09;101638.50;;;5.72;82.95
5138;BME280;53959;53.626;11.410;2023-04-20T05:27:34;101639.28;;;5.62;82.66
5138;BME280;53959;53.626;11.410;2023-04-20T05:30:00;101637.63;;;5.75;83.20
5138;BME280;53959;53.626;11.410;2023-04-20T05:32:25;101641.16;;;5.77;83.05
5138;BME280;53959;53.626;11.410;2023-04-20T05:34:51;101648.16;;;5.73;82.94
5138;BME280;53959;53.626;11.410;2023-04-20T05:37:16;101643.78;;;5.74;82.78
5138;BME280;53959;53.626;11.410;2023-04-20T05:39:41;101646.41;;;5.75;83.08
5138;BME280;53959;53.626;11.410;2023-04-20T05:42:07;101648.25;;;5.81;82.85
5138;BME280;53959;53.626;11.410;2023-04-20T05:44:32;101657.94;;;5.85;82.72
5138;BME280;53959;53.626;11.410;2023-04-20T05:47:00;101645.59;;;5.82;82.71
5138;BME280;53959;53.626;11.410;2023-04-20T05:49:26;101644.72;;;5.82;82.60
5138;BME280;53959;53.626;11.410;2023-04-20T05:51:51;101647.50;;;5.93;82.88
5138;BME280;53959;53.626;11.410;2023-04-20T05:54:16;101652.59;;;5.79;82.66
5138;BME280;53959;53.626;11.410;2023-04-20T05:56:42;101648.19;;;5.78;82.72
5138;BME280;53959;53.626;11.410;2023-04-20T05:59:07;101653.50;;;5.81;82.61
5138;BME280;53959;53.626;11.410;2023-04-20T06:01:33;101648.19;;;5.78;82.79
5138;BME280;53959;53.626;11.410;2023-04-20T06:03:59;101650.03;;;5.83;82.87
5138;BME280;53959;53.626;11.410;2023-04-20T06:06:24;101654.38;;;5.80;82.72
5138;BME280;53959;53.626;11.410;2023-04-20T06:08:50;101653.66;;;5.93;82.85
5138;BME280;53959;53.626;11.410;2023-04-20T06:11:16;101653.56;;;5.84;82.70
5138;BME280;53959;53.626;11.410;2023-04-20T06:13:42;101659.63;;;5.77;83.00
5138;BME280;53959;53.626;11.410;2023-04-20T06:16:07;101657.00;;;5.77;83.03
5138;BME280;53959;53.626;11.410;2023-04-20T06:18:35;101655.31;;;5.85;82.99
5138;BME280;53959;53.626;11.410;2023-04-20T06:21:02;101651.94;;;5.95;82.37
5138;BME280;53959;53.626;11.410;2023-04-20T06:23:27;101657.97;;;5.88;82.35
5138;BME280;53959;53.626;11.410;2023-04-20T06:25:53;101656.22;;;5.90;82.95
5138;BME280;53959;53.626;11.410;2023-04-20T06:28:18;101659.69;;;5.84;82.49
5138;BME280;53959;53.626;11.410;2023-04-20T06:30:44;101657.97;;;5.88;82.70
5138;BME280;53959;53.626;11.410;2023-04-20T06:33:09;101671.13;;;5.85;82.31
5138;BME280;53959;53.626;11.410;2023-04-20T06:35:38;101666.06;;;6.03;83.13
5138;BME280;53959;53.626;11.410;2023-04-20T06:38:04;101671.28;;;5.97;82.90
5138;BME280;53959;53.626;11.410;2023-04-20T06:40:29;101665.91;;;5.91;82.66
5138;BME280;53959;53.626;11.410;2023-04-20T06:42:54;101667.00;;;6.12;83.13
5138;BME280;53959;53.626;11.410;2023-04-20T06:45:20;101662.63;;;6.17;82.52
5138;BME280;53959;53.626;11.410;2023-04-20T06:47:46;101669.47;;;5.93;82.73
5138;BME280;53959;53.626;11.410;2023-04-20T06:50:11;101678.16;;;5.84;82.56
5138;BME280;53959;53.626;11.410;2023-04-20T06:52:38;101676.41;;;5.83;83.00
5138;BME280;53959;53.626;11.410;2023-04-20T06:55:04;101675.59;;;5.91;82.78
5138;BME280;53959;53.626;11.410;2023-04-20T06:57:29;101674.75;;;5.93;82.73
5138;BME280;53959;53.626;11.410;2023-04-20T06:59:55;101676.53;;;5.97;82.88
5138;BME280;53959;53.626;11.410;2023-04-20T07:02:20;101680.94;;;5.97;83.01
5138;BME280;53959;53.626;11.410;2023-04-20T07:04:45;101694.94;;;5.91;82.74
5138;BME280;53959;53.626;11.410;2023-04-20T07:07:11;101688.66;;;5.81;82.95
5138;BME280;53959;53.626;11.410;2023-04-20T07:09:36;101694.09;;;5.92;83.02
5138;BME280;53959;53.626;11.410;2023-04-20T07:12:01;101693.09;;;5.85;83.04
5138;BME280;53959;53.626;11.410;2023-04-20T07:14:27;101696.66;;;5.88;82.95
5138;BME280;53959;53.626;11.410;2023-04-20T07:16:53;101696.72;;;5.94;83.47
5138;BME280;53959;53.626;11.410;2023-04-20T07:19:19;101701.03;;;5.87;83.54
5138;BME280;53959;53.626;11.410;2023-04-20T07:21:44;101706.28;;;5.84;83.79
5138;BME280;53959;53.626;11.410;2023-04-20T07:24:10;101700.13;;;5.85;83.54
5138;BME280;53959;53.626;11.410;2023-04-20T07:26:36;101707.34;;;5.98;83.89
5138;BME280;53959;53.626;11.410;2023-04-20T07:29:01;101707.34;;;6.00;83.80
5138;BME280;53959;53.626;11.410;2023-04-20T07:31:26;101717.88;;;5.98;83.95
5138;BME280;53959;53.626;11.410;2023-04-20T07:33:52;101718.75;;;5.97;83.82
5138;BME280;53959;53.626;11.410;2023-04-20T07:36:17;101731.13;;;6.03;83.92
5138;BME280;53959;53.626;11.410;2023-04-20T07:38:43;101728.44;;;6.01;83.64
5138;BME280;53959;53.626;11.410;2023-04-20T07:41:09;101713.50;;;5.99;83.88
5138;BME280;53959;53.626;11.410;2023-04-20T07:43:35;101718.72;;;5.94;83.76
5138;BME280;53959;53.626;11.410;2023-04-20T07:46:00;101695.94;;;6.02;84.03
5138;BME280;53959;53.626;11.410;2023-04-20T07:48:25;101688.88;;;6.01;84.47
5138;BME280;53959;53.626;11.410;2023-04-20T07:50:51;101696.88;;;6.09;84.48
5138;BME280;53959;53.626;11.410;2023-04-20T07:53:17;101703.06;;;6.13;84.32
5138;BME280;53959;53.626;11.410;2023-04-20T07:55:42;101694.28;;;6.17;84.24
5138;BME280;53959;53.626;11.410;2023-04-20T07:58:08;101703.94;;;6.12;84.08
5138;BME280;53959;53.626;11.410;2023-04-20T08:00:33;101697.78;;;6.13;84.01
5138;BME280;53959;53.626;11.410;2023-04-20T08:02:58;101705.78;;;6.22;84.20
5138;BME280;53959;53.626;11.410;2023-04-20T08:05:24;101705.84;;;6.29;84.08
5138;BME280;53959;53.626;11.410;2023-04-20T08:07:49;101695.34;;;6.39;83.59
5138;BME280;53959;53.626;11.410;2023-04-20T08:10:15;101691.88;;;6.41;84.21
5138;BME280;53959;53.626;11.410;2023-04-20T08:12:40;101699.03;;;6.54;83.79
5138;BME280;53959;53.626;11.410;2023-04-20T08:15:06;101718.28;;;6.44;83.69
5138;BME280;53959;53.626;11.410;2023-04-20T08:17:32;101729.72;;;6.43;83.70
5138;BME280;53959;53.626;11.410;2023-04-20T08:19:58;101731.50;;;6.44;83.66
5138;BME280;53959;53.626;11.410;2023-04-20T08:22:23;101731.47;;;6.43;83.48
5138;BME280;53959;53.626;11.410;2023-04-20T08:24:51;101724.34;;;6.34;83.75
5138;BME280;53959;53.626;11.410;2023-04-20T08:27:17;101743.75;;;6.39;83.70
5138;BME280;53959;53.626;11.410;2023-04-20T08:29:42;101732.31;;;6.39;83.73
5138;BME280;53959;53.626;11.410;2023-04-20T08:32:08;101734.97;;;6.40;83.98
5138;BME280;53959;53.626;11.410;2023-04-20T08:34:34;101738.50;;;6.42;83.82
5138;BME280;53959;53.626;11.410;2023-04-20T08:36:59;101742.06;;;6.47;83.81
5138;BME280;53959;53.626;11.410;2023-04-20T08:39:24;101744.72;;;6.47;83.75
5138;BME280;53959;53.626;11.410;2023-04-20T08:41:50;101745.69;;;6.59;83.82
5138;BME280;53959;53.626;11.410;2023-04-20T08:44:20;101735.06;;;6.52;83.69
5138;BME280;53959;53.626;11.410;2023-04-20T08:46:47;101731.59;;;6.60;83.34
5138;BME280;53959;53.626;11.410;2023-04-20T08:49:17;101735.06;;;6.52;83.33
5138;BME280;53959;53.626;11.410;2023-04-20T08:51:47;101735.97;;;6.57;83.80
5138;BME280;53959;53.626;11.410;2023-04-20T08:54:13;101735.16;;;6.65;83.40
5138;BME280;53959;53.626;11.410;2023-04-20T08:56:40;101743.09;;;6.66;83.21
5138;BME280;53959;53.626;11.410;2023-04-20T08:59:06;101746.50;;;6.51;83.43
5138;BME280;53959;53.626;11.410;2023-04-20T09:01:35;101735.97;;;6.57;83.59
5138;BME280;53959;53.626;11.410;2023-04-20T09:04:01;101736.72;;;6.43;83.65
5138;BME280;53959;53.626;11.410;2023-04-20T09:06:27;101733.28;;;6.48;84.06
5138;BME280;53959;53.626;11.410;2023-04-20T09:08:53;101729.66;;;6.37;84.18
5138;BME280;53959;53.626;11.410;2023-04-20T09:11:23;101737.72;;;6.51;84.42
5138;BME280;53959;53.626;11.410;2023-04-20T09:14:05;101738.59;;;6.51;84.41
5138;BME280;53959;53.626;11.410;2023-04-20T09:16:32;101740.41;;;6.59;84.28
5138;BME280;53959;53.626;11.410;2023-04-20T09:18:59;101743.88;;;6.53;84.31
5138;BME280;53959;53.626;11.410;2023-04-20T09:21:26;101757.06;;;6.53;84.03
5138;BME280;53959;53.626;11.410;2023-04-20T09:24:04;101752.63;;;6.50;84.25
5138;BME280;53959;53.626;11.410;2023-04-20T09:26:33;101759.66;;;6.50;84.15
5138;BME280;53959;53.626;11.410;2023-04-20T09:29:03;101749.13;;;6.50;84.38
5138;BME280;53959;53.626;11.410;2023-04-20T09:31:28;101740.38;;;6.57;84.38
5138;BME280;53959;53.626;11.410;2023-04-20T09:34:02;101744.00;;;6.73;84.57
5138;BME280;53959;53.626;11.410;2023-04-20T09:39:07;101747.53;;;6.72;84.06
5138;BME280;53959;53.626;11.410;2023-04-20T09:41:34;101760.75;;;6.76;83.96
5138;BME280;53959;53.626;11.410;2023-04-20T09:44:00;101757.28;;;6.82;84.15
5138;BME280;53959;53.626;11.410;2023-04-20T09:46:30;101769.59;;;6.78;83.97
5138;BME280;53959;53.626;11.410;2023-04-20T09:48:57;101761.72;;;6.85;84.10
5138;BME280;53959;53.626;11.410;2023-04-20T09:51:25;101766.19;;;6.99;84.33
5138;BME280;53959;53.626;11.410;2023-04-20T09:53:54;101761.81;;;7.01;83.89
5138;BME280;53959;53.626;11.410;2023-04-20T09:56:20;101755.69;;;7.04;83.92
5138;BME280;53959;53.626;11.410;2023-04-20T09:58:46;101760.09;;;7.06;83.76
5138;BME280;53959;53.626;11.410;2023-04-20T10:01:11;101750.41;;;7.04;83.83
5138;BME280;53959;53.626;11.410;2023-04-20T10:03:40;101754.00;;;7.17;83.78
5138;BME280;53959;53.626;11.410;2023-04-20T10:06:24;101758.38;;;7.18;83.59
5138;BME280;53959;53.626;11.410;2023-04-20T10:08:51;101745.22;;;7.24;83.61
5138;BME280;53959;53.626;11.410;2023-04-20T10:11:31;101750.53;;;7.33;83.41
5138;BME280;53959;53.626;11.410;2023-04-20T10:13:57;101752.38;;;7.42;83.46
5138;BME280;53959;53.626;11.410;2023-04-20T10:16:24;101745.28;;;7.39;83.42
5138;BME280;53959;53.626;11.410;2023-04-20T10:18:58;101736.56;;;7.52;83.38
5138;BME280;53959;53.626;11.410;2023-04-20T10:21:25;101732.09;;;7.48;83.24
5138;BME280;53959;53.626;11.410;2023-04-20T10:23:51;101735.69;;;7.57;83.07
5138;BME280;53959;53.626;11.410;2023-04-20T10:26:18;101732.19;;;7.64;82.77
5138;BME280;53959;53.626;11.410;2023-04-20T10:28:43;101727.81;;;7.72;82.52
5138;BME280;53959;53.626;11.410;2023-04-20T10:31:10;101734.88;;;7.81;82.06
5138;BME280;53959;53.626;11.410;2023-04-20T10:36:27;101728.75;;;7.98;81.89
5138;BME280;53959;53.626;11.410;2023-04-20T10:38:52;101742.00;;;8.14;81.84
5138;BME280;53959;53.626;11.410;2023-04-20T10:41:19;101740.25;;;8.25;81.86
5138;BME280;53959;53.626;11.410;2023-04-20T10:43:45;101738.47;;;8.33;81.35
5138;BME280;53959;53.626;11.410;2023-04-20T10:46:20;101728.78;;;8.37;81.46
5138;BME280;53959;53.626;11.410;2023-04-20T10:48:53;101734.09;;;8.52;80.83
5138;BME280;53959;53.626;11.410;2023-04-20T10:51:20;101739.41;;;8.69;80.76
5138;BME280;53959;53.626;11.410;2023-04-20T10:53:46;101737.63;;;8.85;80.26
5138;BME280;53959;53.626;11.410;2023-04-20T10:56:21;101740.25;;;8.89;79.98
5138;BME280;53959;53.626;11.410;2023-04-20T10:58:46;101744.53;;;9.36;79.66
5138;BME280;53959;53.626;11.410;2023-04-20T11:01:12;101746.34;;;9.25;78.92
5138;BME280;53959;53.626;11.410;2023-04-20T11:03:37;101735.72;;;9.40;78.70
5138;BME280;53959;53.626;11.410;2023-04-20T11:06:02;101733.75;;;9.73;78.25
5138;BME280;53959;53.626;11.410;2023-04-20T11:08:41;101731.94;;;9.84;77.94
5138;BME280;53959;53.626;11.410;2023-04-20T11:11:18;101734.56;;;9.89;77.99
5138;BME280;53959;53.626;11.410;2023-04-20T11:13:43;101731.06;;;9.78;77.54
5138;BME280;53959;53.626;11.410;2023-04-20T11:16:13;101730.09;;;9.95;77.48
5138;BME280;53959;53.626;11.410;2023-04-20T11:18:50;101727.41;;;10.00;77.84
5138;BME280;53959;53.626;11.410;2023-04-20T11:21:16;101727.50;;;9.85;77.70
5138;BME280;53959;53.626;11.410;2023-04-20T11:23:42;101718.50;;;10.07;77.79
5138;BME280;53959;53.626;11.410;2023-04-20T11:26:08;101712.97;;;10.41;76.62
5138;BME280;53959;53.626;11.410;2023-04-20T11:28:34;101706.53;;;10.68;76.57
5138;BME280;53959;53.626;11.410;2023-04-20T11:31:00;101708.38;;;10.60;76.17
5138;BME280;53959;53.626;11.410;2023-04-20T11:33:27;101702.00;;;10.81;75.23
5138;BME280;53959;53.626;11.410;2023-04-20T11:35:53;101706.16;;;11.05;75.22
5138;BME280;53959;53.626;11.410;2023-04-20T11:38:31;101705.78;;;11.35;74.16
5138;BME280;53959;53.626;11.410;2023-04-20T11:40:56;101702.84;;;11.60;73.77
5138;BME280;53959;53.626;11.410;2023-04-20T11:43:24;101708.94;;;11.68;73.43
5138;BME280;53959;53.626;11.410;2023-04-20T11:45:50;101710.63;;;11.74;72.42
5138;BME280;53959;53.626;11.410;2023-04-20T11:48:16;101695.44;;;11.83;71.85
5138;BME280;53959;53.626;11.410;2023-04-20T11:50:43;101697.84;;;12.00;72.20
5138;BME280;53959;53.626;11.410;2023-04-20T11:53:08;101690.59;;;12.10;71.21
5138;BME280;53959;53.626;11.410;2023-04-20T11:55:38;101693.88;;;12.26;70.04
5138;BME280;53959;53.626;11.410;2023-04-20T11:58:03;101693.88;;;12.27;69.90
5138;BME280;53959;53.626;11.410;2023-04-20T12:00:28;101694.88;;;12.20;69.71
5138;BME280;53959;53.626;11.410;2023-04-20T12:02:54;101693.75;;;12.33;69.84
5138;BME280;53959;53.626;11.410;2023-04-20T12:05:19;101689.75;;;12.59;69.21
5138;BME280;53959;53.626;11.410;2023-04-20T12:07:45;101683.59;;;12.57;67.67
5138;BME280;53959;53.626;11.410;2023-04-20T12:10:10;101682.06;;;12.92;67.89
5138;BME280;53959;53.626;11.410;2023-04-20T12:12:36;101679.34;;;12.95;67.88
5138;BME280;53959;53.626;11.410;2023-04-20T12:15:03;101681.34;;;12.82;67.68
5138;BME280;53959;53.626;11.410;2023-04-20T12:17:28;101682.44;;;12.70;67.90
5138;BME280;53959;53.626;11.410;2023-04-20T12:19:53;101676.88;;;12.84;67.97
5138;BME280;53959;53.626;11.410;2023-04-20T12:22:19;101679.16;;;13.04;67.72
5138;BME280;53959;53.626;11.410;2023-04-20T12:24:44;101677.44;;;13.01;67.43
5138;BME280;53959;53.626;11.410;2023-04-20T12:27:10;101674.84;;;12.97;67.11
5138;BME280;53959;53.626;11.410;2023-04-20T12:29:35;101674.00;;;12.95;67.53
5138;BME280;53959;53.626;11.410;2023-04-20T12:32:00;101664.63;;;13.19;66.90
5138;BME280;53959;53.626;11.410;2023-04-20T12:34:26;101677.81;;;13.28;66.67
5138;BME280;53959;53.626;11.410;2023-04-20T12:36:51;101664.53;;;13.25;66.64
5138;BME280;53959;53.626;11.410;2023-04-20T12:39:16;101662.16;;;13.08;66.67
5138;BME280;53959;53.626;11.410;2023-04-20T12:41:42;101659.28;;;13.19;66.54
5138;BME280;53959;53.626;11.410;2023-04-20T12:44:07;101661.81;;;13.28;66.16
5138;BME280;53959;53.626;11.410;2023-04-20T12:46:32;101660.84;;;13.30;66.06
5138;BME280;53959;53.626;11.410;2023-04-20T12:48:58;101659.91;;;13.33;66.25
5138;BME280;53959;53.626;11.410;2023-04-20T12:51:23;101651.69;;;13.44;65.72
5138;BME280;53959;53.626;11.410;2023-04-20T12:53:48;101650.22;;;13.69;65.31
5138;BME280;53959;53.626;11.410;2023-04-20T12:56:14;101654.31;;;14.57;63.20
5138;BME280;53959;53.626;11.410;2023-04-20T12:58:39;101637.91;;;15.02;60.72
5138;BME280;53959;53.626;11.410;2023-04-20T13:01:05;101635.97;;;15.07;61.23
5138;BME280;53959;53.626;11.410;2023-04-20T13:03:30;101640.47;;;14.74;60.50
5138;BME280;53959;53.626;11.410;2023-04-20T13:05:56;101635.16;;;14.72;61.45